Cambridge Bay, Canada
Current Conditions -  °F | °C
As of 9:00 AM on Thursday 29 Jan 2015 (Local Time) from CYCB Reporting Station
Scattered Clouds Scattered Clouds  
Wind Chill: -52°   Ceiling: Unl
Heat Index: -31°   Visibility: 8mi
Dew Point: -38°   Wind: 8mph
Humidity: 68%   Direction: 270°W
Pressure: 29.83"   Gusts: NA
Location:  69.12°N, 105.03°W
Report Text: CYCB 291600Z 27007KT 8SM FEW035 SCT055 M35/M39 A2983 RMK SC1SC1IC SLP110
Loading
Personal Weather Stations






























Interactive Weather Map New forecast layout! Learn more

10-Day Weather Forecast

Advertisements
Track Severe Weather on mobile